createdAt,value
2023-05-21T00:00:31.338Z,82.23
2023-05-21T00:02:34.461Z,81.24
2023-05-21T00:04:36.131Z,81.65
2023-05-21T00:06:38.075Z,81.59
2023-05-21T00:08:40.048Z,82.16
2023-05-21T00:10:41.650Z,82.78
2023-05-21T00:12:43.287Z,83.04
2023-05-21T00:14:44.861Z,83.05
2023-05-21T00:16:47.167Z,83.45
2023-05-21T00:18:54.358Z,82.12
2023-05-21T00:20:56.006Z,83.07
2023-05-21T00:22:58.271Z,82.91
2023-05-21T00:24:59.998Z,82.57
2023-05-21T00:27:01.559Z,82.32
2023-05-21T00:29:03.486Z,83.65
2023-05-21T00:31:05.162Z,82.80
2023-05-21T00:33:07.570Z,82.18
2023-05-21T00:35:09.423Z,83.48
2023-05-21T00:37:11.074Z,84.42
2023-05-21T00:39:13.667Z,84.49
2023-05-21T00:41:15.650Z,82.67
2023-05-21T00:43:17.259Z,83.17
2023-05-21T00:45:19.093Z,83.60
2023-05-21T00:47:23.686Z,82.61
2023-05-21T00:49:25.961Z,83.48
2023-05-21T00:51:30.409Z,83.97
2023-05-21T00:53:35.075Z,83.83
2023-05-21T00:55:39.924Z,84.93
2023-05-21T00:57:42.579Z,83.37
2023-05-21T00:59:44.556Z,83.20
2023-05-21T01:01:52.412Z,84.40
2023-05-21T01:03:57.728Z,83.02
2023-05-21T01:08:33.517Z,82.55
2023-05-21T01:10:35.143Z,84.14
2023-05-21T01:12:39.372Z,83.57
2023-05-21T01:14:41.823Z,82.94
2023-05-21T01:16:46.935Z,84.43
2023-05-21T01:18:48.920Z,83.70
2023-05-21T01:20:50.930Z,83.77
2023-05-21T01:22:56.937Z,83.29
2023-05-21T01:24:58.596Z,82.76
2023-05-21T01:27:02.553Z,83.51
2023-05-21T01:29:06.551Z,83.05
2023-05-21T01:31:23.513Z,83.10
2023-05-21T01:33:41.843Z,83.35
2023-05-21T01:35:50.453Z,83.30
2023-05-21T01:37:59.810Z,83.64
2023-05-21T01:40:13.127Z,83.83
2023-05-21T01:42:16.861Z,82.70
2023-05-21T01:44:19.356Z,84.25
2023-05-21T01:46:25.204Z,83.70
2023-05-21T01:48:29.289Z,84.59
2023-05-21T01:50:32.325Z,83.86
2023-05-21T01:52:33.982Z,83.59
2023-05-21T01:54:35.569Z,84.15
2023-05-21T01:56:37.261Z,84.70
2023-05-21T01:58:38.861Z,84.11
2023-05-21T02:00:40.415Z,84.84
2023-05-21T02:02:42.131Z,85.35
2023-05-21T02:04:44.292Z,84.90
2023-05-21T02:06:45.863Z,84.00
2023-05-21T02:08:48.414Z,83.88
2023-05-21T02:10:50.513Z,84.06
2023-05-21T02:12:52.122Z,84.86
2023-05-21T02:14:53.772Z,83.92
2023-05-21T02:16:55.360Z,84.38
2023-05-21T02:18:58.819Z,85.13
2023-05-21T02:21:03.546Z,84.45
2023-05-21T02:23:05.142Z,84.59
2023-05-21T02:25:08.907Z,84.45
2023-05-21T02:27:10.660Z,85.53
2023-05-21T02:29:12.255Z,84.96
2023-05-21T02:31:13.892Z,84.36
2023-05-21T02:33:16.653Z,84.57
2023-05-21T02:35:18.690Z,84.49
2023-05-21T02:37:20.545Z,83.95
2023-05-21T02:39:22.281Z,83.80
2023-05-21T02:41:24.041Z,85.25
2023-05-21T02:43:25.713Z,85.24
2023-05-21T02:45:28.642Z,84.23
2023-05-21T02:47:30.457Z,85.06
2023-05-21T02:49:32.058Z,85.60
2023-05-21T02:51:33.656Z,85.04
2023-05-21T02:53:35.541Z,84.54
2023-05-21T02:55:37.362Z,86.09
2023-05-21T02:57:39.089Z,84.87
2023-05-21T02:59:40.768Z,85.37
2023-05-21T03:01:42.462Z,85.30
2023-05-21T03:03:44.185Z,85.27
2023-05-21T03:05:45.899Z,85.67
2023-05-21T03:07:47.498Z,86.55
2023-05-21T03:09:49.153Z,85.33
2023-05-21T03:11:51.010Z,86.50
2023-05-21T03:13:52.556Z,85.17
2023-05-21T03:15:57.468Z,85.17
2023-05-21T03:17:59.614Z,85.92
2023-05-21T03:20:01.508Z,86.59
2023-05-21T03:22:04.591Z,84.90
2023-05-21T03:24:06.897Z,84.85
2023-05-21T03:26:08.927Z,86.96
2023-05-21T03:28:10.524Z,86.61
2023-05-21T03:30:12.642Z,86.04
2023-05-21T03:32:14.492Z,86.21
2023-05-21T03:34:16.550Z,86.09
2023-05-21T03:36:18.500Z,86.48
2023-05-21T03:38:20.085Z,86.01
2023-05-21T03:40:21.940Z,86.20
2023-05-21T03:42:23.543Z,85.25
2023-05-21T03:44:25.157Z,85.48
2023-05-21T03:46:28.082Z,86.53
2023-05-21T03:48:29.678Z,85.68
2023-05-21T03:50:31.409Z,86.45
2023-05-21T03:52:33.033Z,86.13
2023-05-21T03:54:34.611Z,86.68
2023-05-21T03:56:36.162Z,86.18
2023-05-21T03:58:37.626Z,86.21
2023-05-21T04:00:39.390Z,86.92
2023-05-21T04:02:41.104Z,86.10
2023-05-21T04:04:44.494Z,86.31
2023-05-21T04:06:46.114Z,86.28
2023-05-21T04:08:48.143Z,86.72
2023-05-21T04:10:49.738Z,86.88
2023-05-21T04:12:52.551Z,85.92
2023-05-21T04:14:54.357Z,86.28
2023-05-21T04:16:56.833Z,87.00
2023-05-21T04:18:58.456Z,87.30
2023-05-21T04:21:00.888Z,86.43
2023-05-21T04:23:03.515Z,85.73
2023-05-21T04:25:05.437Z,85.72
2023-05-21T04:27:07.054Z,86.27
2023-05-21T04:29:09.910Z,85.70
2023-05-21T04:31:13.777Z,85.13
2023-05-21T04:33:18.232Z,86.31
2023-05-21T04:35:20.187Z,86.36
2023-05-21T04:37:24.600Z,84.89
2023-05-21T04:39:26.186Z,85.54
2023-05-21T04:41:28.575Z,85.29
2023-05-21T04:43:30.475Z,85.95
2023-05-21T04:45:32.059Z,85.32
2023-05-21T04:47:35.468Z,85.58
2023-05-21T04:49:37.331Z,84.67
2023-05-21T04:51:38.980Z,84.84
2023-05-21T04:53:40.860Z,84.63
2023-05-21T04:55:42.573Z,85.13
2023-05-21T04:57:44.164Z,85.52
2023-05-21T04:59:47.101Z,86.34
2023-05-21T05:01:48.746Z,84.99
2023-05-21T05:03:50.602Z,84.62
2023-05-21T05:05:52.796Z,85.07
2023-05-21T05:07:54.405Z,84.29
2023-05-21T05:09:56.014Z,84.34
2023-05-21T05:11:57.673Z,85.49
2023-05-21T05:13:59.240Z,84.63
2023-05-21T05:16:01.595Z,85.55
2023-05-21T05:18:03.351Z,83.91
2023-05-21T05:20:06.689Z,83.79
2023-05-21T05:22:08.230Z,83.26
2023-05-21T05:24:09.862Z,83.91
2023-05-21T05:26:11.443Z,84.37
2023-05-21T05:28:13.103Z,84.17
2023-05-21T05:30:14.747Z,83.03
2023-05-21T05:32:16.367Z,83.65
2023-05-21T05:34:17.985Z,83.28
2023-05-21T05:36:19.580Z,83.22
2023-05-21T05:38:21.161Z,83.33
2023-05-21T05:40:22.785Z,83.18
2023-05-21T05:42:24.403Z,83.62
2023-05-21T05:44:26.005Z,82.33
2023-05-21T05:46:29.237Z,83.04
2023-05-21T05:48:31.252Z,82.82
2023-05-21T05:50:32.800Z,81.60
2023-05-21T05:52:34.373Z,81.30
2023-05-21T05:54:35.992Z,81.96
2023-05-21T05:56:37.612Z,80.97
2023-05-21T05:58:39.170Z,81.72
2023-05-21T06:00:40.931Z,81.37
2023-05-21T06:02:42.633Z,81.78
2023-05-21T06:04:44.228Z,82.14
2023-05-21T06:06:46.146Z,81.61
2023-05-21T06:08:47.780Z,81.48
2023-05-21T06:10:49.496Z,81.85
2023-05-21T06:12:51.046Z,81.36
2023-05-21T06:14:52.632Z,80.45
2023-05-21T06:16:54.211Z,79.68
2023-05-21T06:18:55.870Z,80.00
2023-05-21T06:20:57.787Z,80.87
2023-05-21T06:23:01.081Z,80.64
2023-05-21T06:25:02.943Z,80.23
2023-05-21T06:27:05.084Z,79.10
2023-05-21T06:29:06.897Z,79.58
2023-05-21T06:31:08.515Z,79.81
2023-05-21T06:33:10.130Z,78.93
2023-05-21T06:35:11.869Z,79.56
2023-05-21T06:37:13.571Z,79.95
2023-05-21T06:39:15.200Z,79.25
2023-05-21T06:41:16.762Z,79.36
2023-05-21T06:43:18.387Z,79.21
2023-05-21T06:45:20.018Z,78.79
2023-05-21T06:47:21.642Z,79.32
2023-05-21T06:49:23.235Z,78.28
2023-05-21T06:51:24.801Z,77.93
2023-05-21T06:53:26.405Z,78.07
2023-05-21T06:55:27.941Z,79.19
2023-05-21T06:57:29.498Z,80.12
2023-05-21T06:59:31.611Z,77.68
2023-05-21T07:01:34.395Z,78.50
2023-05-21T07:03:36.690Z,77.70
2023-05-21T07:05:38.601Z,78.00
2023-05-21T07:07:40.702Z,78.22
2023-05-21T07:09:42.281Z,78.92
2023-05-21T07:11:44.432Z,77.16
2023-05-21T07:13:46.067Z,77.26
2023-05-21T07:15:47.639Z,77.15
2023-05-21T07:17:49.218Z,76.82
2023-05-21T07:19:50.854Z,77.65
2023-05-21T07:21:52.517Z,77.18
2023-05-21T07:23:54.089Z,76.94
2023-05-21T07:25:55.687Z,75.93
2023-05-21T07:27:57.250Z,76.23
2023-05-21T07:29:58.823Z,75.82
2023-05-21T07:32:00.403Z,75.92
2023-05-21T07:34:01.970Z,75.99
2023-05-21T07:36:04.323Z,75.54
2023-05-21T07:38:06.238Z,75.89
2023-05-21T07:40:08.426Z,74.71
2023-05-21T07:42:10.079Z,75.82
2023-05-21T07:44:11.649Z,74.98
2023-05-21T07:46:13.267Z,74.51
2023-05-21T07:48:14.993Z,73.91
2023-05-21T07:50:16.629Z,74.41
2023-05-21T07:52:18.267Z,73.52
2023-05-21T07:54:19.906Z,74.30
2023-05-21T07:56:21.608Z,73.37
2023-05-21T07:58:23.575Z,73.17
2023-05-21T08:00:25.276Z,72.70
2023-05-21T08:02:26.935Z,72.30
2023-05-21T08:04:28.709Z,72.16
2023-05-21T08:06:31.261Z,71.74
2023-05-21T08:08:32.896Z,72.37
2023-05-21T08:10:34.458Z,72.60
2023-05-21T08:12:36.134Z,71.66
2023-05-21T08:14:37.676Z,70.99
2023-05-21T08:16:39.360Z,70.81
2023-05-21T08:18:41.354Z,71.34
2023-05-21T08:20:43.123Z,71.17
2023-05-21T08:22:44.675Z,71.51
2023-05-21T08:24:46.539Z,69.80
2023-05-21T08:26:49.665Z,70.69
2023-05-21T08:28:51.319Z,70.81
2023-05-21T08:30:52.938Z,70.44
2023-05-21T08:32:55.336Z,70.34
2023-05-21T08:34:58.181Z,70.83
2023-05-21T08:36:59.735Z,70.45
2023-05-21T08:39:01.587Z,69.82
2023-05-21T08:41:06.894Z,69.93
2023-05-21T08:43:13.830Z,68.78
2023-05-21T08:45:21.069Z,67.96
2023-05-21T08:47:26.141Z,69.24
2023-05-21T08:49:34.547Z,68.28
2023-05-21T08:51:36.145Z,67.83
2023-05-21T08:53:37.990Z,68.77
2023-05-21T08:55:43.459Z,68.54
2023-05-21T08:57:45.333Z,68.38
2023-05-21T08:59:47.048Z,68.58
2023-05-21T09:01:50.168Z,67.83
2023-05-21T09:03:54.552Z,68.32
2023-05-21T09:06:01.284Z,67.56
2023-05-21T09:08:19.603Z,67.78
2023-05-21T09:10:26.682Z,67.72
2023-05-21T09:12:28.772Z,68.25
2023-05-21T09:14:31.288Z,68.30
2023-05-21T09:16:32.912Z,68.44
2023-05-21T09:18:34.701Z,67.21
2023-05-21T09:20:36.333Z,66.56
2023-05-21T09:22:42.875Z,66.81
2023-05-21T09:24:44.636Z,66.04
2023-05-21T09:26:46.323Z,65.60
2023-05-21T09:28:47.986Z,65.98
2023-05-21T09:30:54.025Z,67.22
2023-05-21T09:33:00.196Z,65.23
2023-05-21T09:35:13.090Z,65.31
2023-05-21T09:37:26.508Z,65.28
2023-05-21T09:39:32.021Z,64.37
2023-05-21T09:41:36.130Z,64.84
2023-05-21T09:43:37.863Z,64.64
2023-05-21T09:45:50.799Z,65.01
2023-05-21T09:47:53.933Z,63.87
2023-05-21T09:49:58.694Z,64.12
2023-05-21T09:52:00.554Z,64.49
2023-05-21T09:54:03.324Z,64.28
2023-05-21T09:56:05.322Z,64.98
2023-05-21T09:58:07.202Z,64.10
2023-05-21T10:00:10.809Z,63.90
2023-05-21T10:02:21.044Z,62.87
2023-05-21T10:04:24.908Z,64.32
2023-05-21T10:06:32.320Z,63.02
2023-05-21T10:08:36.754Z,64.27
2023-05-21T10:10:40.648Z,63.93
2023-05-21T10:12:46.472Z,62.94
2023-05-21T10:14:52.391Z,62.69
2023-05-21T10:16:54.749Z,63.40
2023-05-21T10:18:58.110Z,63.30
2023-05-21T10:21:00.982Z,62.65
2023-05-21T10:23:03.440Z,64.07
2023-05-21T10:25:07.827Z,63.99
2023-05-21T10:27:10.343Z,63.71
2023-05-21T10:29:14.593Z,62.10
2023-05-21T10:31:16.708Z,61.77
2023-05-21T10:33:18.403Z,63.14
2023-05-21T10:35:20.066Z,63.20
2023-05-21T10:37:31.965Z,62.95
2023-05-21T10:39:34.490Z,61.84
2023-05-21T10:41:46.698Z,62.71
2023-05-21T10:43:57.855Z,60.73
2023-05-21T10:46:24.578Z,61.68
2023-05-21T10:48:36.726Z,61.00
2023-05-21T10:50:46.865Z,60.14
2023-05-21T10:53:10.651Z,61.75
2023-05-21T10:55:15.487Z,61.16
2023-05-21T10:57:29.276Z,61.50
2023-05-21T10:59:42.653Z,61.40
2023-05-21T11:01:45.374Z,60.54
2023-05-21T11:03:48.668Z,60.15
2023-05-21T11:05:55.933Z,60.39
2023-05-21T11:07:57.798Z,60.10
2023-05-21T11:10:37.415Z,60.23
2023-05-21T11:13:09.351Z,59.46
2023-05-21T11:15:16.327Z,60.37
2023-05-21T11:17:42.003Z,59.53
2023-05-21T11:19:47.500Z,58.88
2023-05-21T11:21:52.184Z,58.69
2023-05-21T11:23:58.529Z,59.11
2023-05-21T11:26:03.317Z,58.08
2023-05-21T11:28:09.637Z,58.95
2023-05-21T11:30:19.607Z,57.81
2023-05-21T11:32:21.244Z,59.54
2023-05-21T11:34:28.687Z,58.41
2023-05-21T11:36:30.435Z,57.84
2023-05-21T11:38:33.005Z,59.50
2023-05-21T11:40:35.645Z,59.26
2023-05-21T11:42:42.169Z,59.01
2023-05-21T11:44:48.325Z,57.86
2023-05-21T11:46:51.978Z,59.03
2023-05-21T11:48:55.078Z,57.81
2023-05-21T11:50:57.582Z,57.83
2023-05-21T11:52:59.956Z,58.01
2023-05-21T11:55:01.652Z,58.36
2023-05-21T11:57:07.801Z,59.16
2023-05-21T11:59:19.066Z,57.14
2023-05-21T12:01:29.458Z,56.82
2023-05-21T12:03:35.113Z,56.86
2023-05-21T12:05:49.709Z,57.42
2023-05-21T12:07:51.668Z,57.86
2023-05-21T12:09:53.344Z,58.01
2023-05-21T12:11:55.050Z,57.43
2023-05-21T12:13:56.980Z,58.40
2023-05-21T12:15:58.660Z,56.87
2023-05-21T12:18:01.339Z,57.27
2023-05-21T12:20:07.211Z,57.58
2023-05-21T12:22:09.605Z,56.24
2023-05-21T12:24:11.152Z,56.59
2023-05-21T12:26:13.752Z,56.81
2023-05-21T12:28:16.029Z,56.57
2023-05-21T12:30:21.308Z,56.40
2023-05-21T12:32:22.956Z,55.84
2023-05-21T12:34:46.551Z,55.29
2023-05-21T12:36:50.190Z,56.81
2023-05-21T12:38:52.091Z,55.55
2023-05-21T12:40:53.801Z,54.86
2023-05-21T12:42:56.164Z,54.69
2023-05-21T12:44:58.099Z,54.04
2023-05-21T12:46:59.827Z,55.06
2023-05-21T12:49:01.400Z,55.97
2023-05-21T12:51:03.025Z,54.74
2023-05-21T12:53:04.576Z,54.67
2023-05-21T12:55:08.247Z,54.89
2023-05-21T12:57:16.149Z,54.93
2023-05-21T12:59:17.723Z,54.21
2023-05-21T13:01:21.886Z,53.78
2023-05-21T13:03:23.634Z,53.64
2023-05-21T13:05:25.232Z,53.95
2023-05-21T13:07:29.115Z,52.41
2023-05-21T13:09:30.688Z,54.79
2023-05-21T13:11:32.275Z,53.72
2023-05-21T13:13:33.830Z,53.45
2023-05-21T13:15:35.470Z,52.50
2023-05-21T13:17:37.769Z,53.17
2023-05-21T13:19:39.392Z,52.19
2023-05-21T13:21:40.965Z,53.30
2023-05-21T13:23:42.546Z,53.29
2023-05-21T13:25:44.320Z,52.88
2023-05-21T13:27:47.413Z,51.30
2023-05-21T13:29:49.003Z,52.86
2023-05-21T13:31:50.568Z,51.67
2023-05-21T13:33:52.230Z,52.83
2023-05-21T13:35:53.890Z,53.30
2023-05-21T13:37:55.557Z,52.24
2023-05-21T13:39:57.991Z,51.98
2023-05-21T13:41:59.648Z,53.31
2023-05-21T13:44:01.356Z,52.15
2023-05-21T13:46:03.504Z,52.00
2023-05-21T13:48:05.548Z,53.08
2023-05-21T13:50:08.476Z,53.74
2023-05-21T13:52:10.170Z,52.87
2023-05-21T13:54:11.804Z,53.26
2023-05-21T13:56:13.511Z,53.10
2023-05-21T13:58:15.186Z,51.58
2023-05-21T14:00:16.863Z,53.48
2023-05-21T14:02:18.730Z,52.98
2023-05-21T14:04:20.981Z,51.76
2023-05-21T14:06:22.603Z,52.10
2023-05-21T14:08:26.011Z,52.46
2023-05-21T14:10:27.630Z,52.91
2023-05-21T14:12:29.243Z,50.95
2023-05-21T14:14:31.421Z,51.50
2023-05-21T14:16:33.041Z,50.68
2023-05-21T14:18:34.655Z,51.77
2023-05-21T14:20:37.661Z,50.42
2023-05-21T14:22:44.337Z,49.94
2023-05-21T14:24:46.161Z,49.81
2023-05-21T14:26:47.769Z,49.78
2023-05-21T14:28:49.413Z,49.89
2023-05-21T14:30:51.074Z,50.12
2023-05-21T14:32:52.714Z,48.71
2023-05-21T14:34:54.300Z,49.78
2023-05-21T14:36:55.932Z,47.92
2023-05-21T14:38:57.497Z,47.27
2023-05-21T14:40:59.053Z,47.55
2023-05-21T14:43:00.700Z,47.42
2023-05-21T14:45:17.457Z,48.09
2023-05-21T14:47:19.574Z,44.44
2023-05-21T14:49:23.720Z,38.26
2023-05-21T14:51:25.549Z,36.79
2023-05-21T14:53:27.201Z,36.06
2023-05-21T14:55:28.940Z,33.75
2023-05-21T14:57:32.402Z,34.05
2023-05-21T14:59:33.971Z,33.34
2023-05-21T15:01:35.680Z,32.71
2023-05-21T15:03:37.402Z,31.21
2023-05-21T15:05:39.330Z,30.85
2023-05-21T15:07:41.032Z,31.30
2023-05-21T15:09:42.592Z,28.82
2023-05-21T15:11:46.011Z,26.94
2023-05-21T15:13:47.827Z,26.89
2023-05-21T15:15:49.937Z,26.35
2023-05-21T15:17:51.646Z,27.28
2023-05-21T15:19:53.297Z,28.41
2023-05-21T15:21:56.022Z,28.63
2023-05-21T15:23:58.291Z,29.22
2023-05-21T15:26:00.650Z,28.66
2023-05-21T15:28:03.123Z,28.25
2023-05-21T15:30:05.369Z,28.18
2023-05-21T15:32:07.187Z,28.09
2023-05-21T15:34:08.953Z,29.05
2023-05-21T15:36:10.786Z,26.58
2023-05-21T15:38:15.371Z,26.30
2023-05-21T15:40:17.209Z,25.77
2023-05-21T15:42:18.807Z,26.24
2023-05-21T15:44:21.289Z,25.24
2023-05-21T15:46:22.922Z,27.32
2023-05-21T15:48:25.585Z,30.15
2023-05-21T15:50:27.217Z,28.50
2023-05-21T15:52:28.852Z,26.61
2023-05-21T15:54:30.854Z,25.28
2023-05-21T15:56:32.493Z,24.46
2023-05-21T15:58:34.064Z,24.61
2023-05-21T16:00:35.726Z,25.09
2023-05-21T16:02:37.667Z,25.17
2023-05-21T16:04:39.340Z,25.65
2023-05-21T16:06:41.075Z,25.67
2023-05-21T16:08:42.771Z,24.97
2023-05-21T16:10:45.986Z,24.98
2023-05-21T16:12:47.646Z,25.83
2023-05-21T16:14:52.255Z,26.07
2023-05-21T16:16:54.049Z,26.30
2023-05-21T16:18:55.704Z,26.13
2023-05-21T16:20:57.514Z,29.52
2023-05-21T16:22:59.145Z,32.97
2023-05-21T16:25:00.778Z,34.52
2023-05-21T16:27:02.415Z,35.87
2023-05-21T16:29:04.038Z,37.07
2023-05-21T16:31:05.920Z,35.71
2023-05-21T16:33:08.108Z,35.48
2023-05-21T16:35:09.852Z,34.98
2023-05-21T16:37:11.474Z,33.69
2023-05-21T16:39:13.061Z,31.99
2023-05-21T16:41:14.749Z,31.25
2023-05-21T16:43:16.529Z,29.51
2023-05-21T16:45:21.864Z,30.86
2023-05-21T16:47:24.073Z,32.87
2023-05-21T16:49:25.745Z,31.00
2023-05-21T16:51:27.310Z,30.75
2023-05-21T16:53:28.928Z,31.54
2023-05-21T16:55:34.452Z,31.05
2023-05-21T16:57:38.569Z,32.96
2023-05-21T16:59:40.168Z,32.93
2023-05-21T17:01:42.623Z,32.91
2023-05-21T17:03:45.117Z,34.26
2023-05-21T17:05:46.785Z,35.20
2023-05-21T17:07:48.732Z,37.25
2023-05-21T17:09:50.338Z,38.32
2023-05-21T17:11:51.982Z,39.47
2023-05-21T17:13:53.635Z,40.59
2023-05-21T17:15:55.346Z,41.86
2023-05-21T17:17:57.095Z,41.04
2023-05-21T17:19:59.068Z,41.01
2023-05-21T17:22:00.784Z,41.05
2023-05-21T17:24:02.500Z,42.78
2023-05-21T17:26:09.513Z,43.65
2023-05-21T17:28:11.298Z,44.29
2023-05-21T17:30:13.168Z,45.64
2023-05-21T17:32:14.810Z,45.84
2023-05-21T17:34:16.749Z,46.39
2023-05-21T17:36:18.401Z,46.78
2023-05-21T17:38:20.052Z,46.93
2023-05-21T17:40:24.270Z,47.55
2023-05-21T17:42:26.035Z,48.52
2023-05-21T17:44:29.900Z,49.09
2023-05-21T17:46:31.540Z,48.86
2023-05-21T17:48:33.195Z,49.15
2023-05-21T17:50:34.874Z,50.47
2023-05-21T17:52:36.491Z,50.96
2023-05-21T17:54:41.165Z,51.00
2023-05-21T17:56:44.208Z,51.02
2023-05-21T17:58:49.379Z,51.75
2023-05-21T18:00:50.952Z,52.33
2023-05-21T18:02:52.594Z,52.90
2023-05-21T18:04:54.359Z,53.52
2023-05-21T18:06:55.932Z,52.68
2023-05-21T18:08:57.993Z,53.28
2023-05-21T18:11:01.561Z,54.17
2023-05-21T18:13:03.243Z,55.06
2023-05-21T18:15:05.287Z,55.97
2023-05-21T18:17:06.957Z,55.75
2023-05-21T18:19:08.644Z,56.83
2023-05-21T18:21:11.027Z,56.27
2023-05-21T18:23:12.644Z,57.29
2023-05-21T18:25:14.255Z,56.64
2023-05-21T18:27:15.973Z,56.93
2023-05-21T18:29:17.568Z,57.75
2023-05-21T18:31:19.247Z,57.46
2023-05-21T18:33:20.849Z,57.81
2023-05-21T18:35:22.482Z,57.13
2023-05-21T18:37:24.114Z,58.79
2023-05-21T18:39:27.743Z,58.91
2023-05-21T18:41:29.437Z,58.83
2023-05-21T18:43:31.014Z,58.75
2023-05-21T18:45:33.180Z,58.95
2023-05-21T18:47:34.970Z,60.02
2023-05-21T18:49:36.747Z,61.25
2023-05-21T18:51:38.471Z,60.91
2023-05-21T18:53:40.617Z,61.42
2023-05-21T18:55:42.166Z,61.32
2023-05-21T18:57:43.986Z,62.45
2023-05-21T18:59:46.049Z,61.78
2023-05-21T19:01:47.766Z,61.73
2023-05-21T19:03:49.412Z,62.73
2023-05-21T19:05:50.991Z,63.83
2023-05-21T19:07:52.698Z,63.54
2023-05-21T19:09:55.569Z,63.59
2023-05-21T19:11:57.413Z,64.49
2023-05-21T19:13:59.268Z,64.54
2023-05-21T19:16:02.118Z,64.99
2023-05-21T19:18:04.165Z,65.51
2023-05-21T19:20:08.422Z,63.46
2023-05-21T19:22:10.022Z,58.75
2023-05-21T19:24:12.033Z,58.15
2023-05-21T19:26:13.920Z,59.48
2023-05-21T19:28:19.034Z,59.52
2023-05-21T19:30:20.679Z,60.57
2023-05-21T19:32:23.664Z,62.09
2023-05-21T19:34:26.866Z,63.65
2023-05-21T19:36:34.988Z,64.85
2023-05-21T19:38:49.966Z,68.54
2023-05-21T19:40:51.537Z,68.81
2023-05-21T19:42:53.319Z,69.54
2023-05-21T19:44:55.011Z,70.23
2023-05-21T19:46:56.615Z,71.78
2023-05-21T19:48:58.366Z,71.64
2023-05-21T19:51:00.010Z,73.18
2023-05-21T19:53:01.723Z,71.94
2023-05-21T19:55:07.926Z,73.47
2023-05-21T19:57:12.273Z,74.26
2023-05-21T19:59:14.254Z,73.63
2023-05-21T20:01:16.706Z,75.58
2023-05-21T20:03:18.626Z,74.38
2023-05-21T20:05:20.537Z,74.28
2023-05-21T20:07:22.644Z,76.47
2023-05-21T20:09:24.257Z,75.53
2023-05-21T20:11:26.227Z,76.09
2023-05-21T20:13:27.874Z,77.09
2023-05-21T20:15:29.470Z,77.18
2023-05-21T20:17:31.154Z,78.45
2023-05-21T20:19:32.958Z,78.53
2023-05-21T20:21:34.857Z,78.96
2023-05-21T20:23:36.422Z,78.02
2023-05-21T20:25:38.678Z,79.30
2023-05-21T20:27:42.421Z,79.62
2023-05-21T20:29:44.670Z,80.43
2023-05-21T20:31:47.062Z,81.09
2023-05-21T20:33:50.700Z,81.43
2023-05-21T20:35:52.411Z,82.23
2023-05-21T20:37:54.710Z,82.32
2023-05-21T20:39:58.002Z,79.63
2023-05-21T20:42:01.035Z,80.73
2023-05-21T20:44:06.493Z,82.40
2023-05-21T20:46:08.225Z,82.53
2023-05-21T20:48:11.986Z,82.35
2023-05-21T20:50:13.562Z,84.74
2023-05-21T20:52:15.243Z,84.13
2023-05-21T20:54:16.965Z,83.94
2023-05-21T20:56:26.623Z,84.57
2023-05-21T20:58:35.792Z,83.91
2023-05-21T21:00:42.102Z,82.36
2023-05-21T21:02:44.154Z,82.74
2023-05-21T21:04:48.668Z,82.73
2023-05-21T21:06:50.349Z,82.37
2023-05-21T21:08:52.201Z,81.33
2023-05-21T21:10:53.846Z,83.01
2023-05-21T21:12:55.424Z,83.23
2023-05-21T21:14:56.984Z,82.09
2023-05-21T21:16:58.545Z,81.42
2023-05-21T21:19:00.733Z,82.71
2023-05-21T21:21:02.386Z,83.34
2023-05-21T21:23:03.985Z,84.06
2023-05-21T21:25:06.210Z,84.10
2023-05-21T21:27:07.879Z,83.53
2023-05-21T21:29:09.442Z,84.54
2023-05-21T21:31:11.171Z,84.19
2023-05-21T21:33:14.368Z,83.57
2023-05-21T21:35:16.546Z,84.40
2023-05-21T21:37:18.105Z,83.46
2023-05-21T21:39:19.754Z,84.07
2023-05-21T21:41:22.463Z,84.09
2023-05-21T21:43:24.046Z,85.70
2023-05-21T21:45:25.640Z,86.20
2023-05-21T21:47:27.218Z,86.89
2023-05-21T21:49:28.818Z,86.39
2023-05-21T21:51:30.420Z,88.44
2023-05-21T21:53:31.978Z,88.60
2023-05-21T21:55:33.601Z,87.64
2023-05-21T21:57:35.728Z,86.74
2023-05-21T21:59:39.225Z,87.31
2023-05-21T22:01:41.021Z,87.48
2023-05-21T22:03:42.671Z,88.36
2023-05-21T22:05:44.753Z,88.71
2023-05-21T22:07:46.607Z,88.77
2023-05-21T22:09:48.501Z,88.32
2023-05-21T22:11:50.099Z,88.59
2023-05-21T22:13:53.776Z,88.72
2023-05-21T22:15:55.342Z,89.37
2023-05-21T22:17:57.043Z,88.28
2023-05-21T22:19:58.706Z,89.05
2023-05-21T22:22:02.066Z,88.94
2023-05-21T22:24:04.090Z,88.60
2023-05-21T22:26:06.662Z,89.70
2023-05-21T22:28:08.431Z,89.45
2023-05-21T22:30:10.400Z,89.44
2023-05-21T22:32:12.690Z,89.30
2023-05-21T22:34:14.305Z,89.89
2023-05-21T22:36:16.087Z,89.65
2023-05-21T22:38:18.033Z,90.49
2023-05-21T22:40:19.651Z,90.12
2023-05-21T22:42:21.336Z,90.83
2023-05-21T22:44:23.093Z,90.69
2023-05-21T22:46:24.732Z,91.04
2023-05-21T22:48:26.367Z,90.53
2023-05-21T22:50:29.157Z,89.62
2023-05-21T22:52:31.920Z,89.63
2023-05-21T22:54:33.741Z,90.49
2023-05-21T22:56:35.550Z,90.13
2023-05-21T22:58:37.180Z,89.70
2023-05-21T23:00:38.918Z,90.51
2023-05-21T23:02:40.819Z,91.14
2023-05-21T23:04:45.890Z,90.63
2023-05-21T23:06:47.505Z,89.91
2023-05-21T23:08:49.085Z,90.29
2023-05-21T23:10:50.674Z,90.94
2023-05-21T23:12:52.459Z,90.58
2023-05-21T23:14:54.213Z,90.20
2023-05-21T23:16:55.915Z,90.62
2023-05-21T23:18:57.833Z,90.27
2023-05-21T23:20:59.514Z,91.03
2023-05-21T23:23:04.125Z,90.64
2023-05-21T23:25:06.333Z,90.58
2023-05-21T23:27:07.982Z,91.22
2023-05-21T23:29:09.524Z,91.36
2023-05-21T23:31:11.447Z,90.95
2023-05-21T23:33:13.856Z,90.49
2023-05-21T23:35:16.223Z,90.87
2023-05-21T23:37:17.949Z,90.38
2023-05-21T23:39:19.588Z,90.45
2023-05-21T23:41:21.263Z,90.89
2023-05-21T23:43:22.964Z,91.65
2023-05-21T23:45:24.554Z,90.88
2023-05-21T23:47:26.201Z,90.94
2023-05-21T23:49:27.794Z,91.63
2023-05-21T23:51:29.560Z,92.19
2023-05-21T23:53:31.220Z,91.38
2023-05-21T23:55:32.761Z,91.53
2023-05-21T23:57:34.320Z,90.91
2023-05-21T23:59:36.050Z,91.47
